createdAt,value
2018-05-18T00:00:16.218Z,22.70
2018-05-18T00:02:46.178Z,17.03
2018-05-18T00:05:14.573Z,29.70
2018-05-18T00:07:42.920Z,19.53
2018-05-18T00:10:11.267Z,16.53
2018-05-18T00:12:39.667Z,24.87
2018-05-18T00:15:08.018Z,30.23
2018-05-18T00:17:36.456Z,33.30
2018-05-18T00:20:04.791Z,25.40
2018-05-18T00:22:33.135Z,26.50
2018-05-18T00:25:01.535Z,36.17
2018-05-18T00:27:29.877Z,20.93
2018-05-18T00:29:58.209Z,26.93
2018-05-18T00:32:26.566Z,20.97
2018-05-18T00:34:55.148Z,32.40
2018-05-18T00:37:23.618Z,22.27
2018-05-18T00:39:52.057Z,16.57
2018-05-18T00:42:20.348Z,22.83
2018-05-18T00:44:48.684Z,27.90
2018-05-18T00:47:17.067Z,21.27
2018-05-18T00:49:45.500Z,28.30
2018-05-18T00:52:13.857Z,25.97
2018-05-18T00:54:42.188Z,32.33
2018-05-18T00:57:10.534Z,23.80
2018-05-18T00:59:38.875Z,24.73
2018-05-18T01:02:07.226Z,23.63
2018-05-18T01:04:35.579Z,24.03
2018-05-18T01:07:04.304Z,31.20
2018-05-18T01:09:32.648Z,20.33
2018-05-18T01:12:01.003Z,26.10
2018-05-18T01:14:34.748Z,26.17
2018-05-18T01:17:02.892Z,20.50
2018-05-18T01:19:31.284Z,21.93
2018-05-18T01:21:59.772Z,27.73
2018-05-18T01:24:28.127Z,24.77
2018-05-18T01:26:56.457Z,21.23
2018-05-18T01:29:24.862Z,22.47
2018-05-18T01:31:53.205Z,20.27
2018-05-18T01:34:21.551Z,32.80
2018-05-18T01:36:49.900Z,27.03
2018-05-18T01:39:18.360Z,28.57
2018-05-18T01:41:46.701Z,29.30
2018-05-18T01:44:15.125Z,25.40
2018-05-18T01:46:43.535Z,25.20
2018-05-18T01:49:15.879Z,31.37
2018-05-18T01:51:44.290Z,25.43
2018-05-18T01:54:12.649Z,28.70
2018-05-18T01:56:41.077Z,27.63
2018-05-18T01:59:09.436Z,34.73
2018-05-18T02:01:37.759Z,37.73
2018-05-18T02:04:06.142Z,30.13
2018-05-18T02:06:34.478Z,26.17
2018-05-18T02:09:02.804Z,29.63
2018-05-18T02:11:31.153Z,27.43
2018-05-18T02:13:59.481Z,26.47
2018-05-18T02:16:27.834Z,32.67
2018-05-18T02:18:56.180Z,36.20
2018-05-18T02:21:24.526Z,31.23
2018-05-18T02:23:52.988Z,31.77
2018-05-18T02:26:21.324Z,27.90
2018-05-18T02:28:49.670Z,35.60
2018-05-18T02:31:18.008Z,31.57
2018-05-18T02:33:46.351Z,28.47
2018-05-18T02:36:14.702Z,32.47
2018-05-18T02:38:43.047Z,34.57
2018-05-18T02:41:11.439Z,38.60
2018-05-18T02:43:39.771Z,30.20
2018-05-18T02:46:08.101Z,36.40
2018-05-18T02:48:36.460Z,38.70
2018-05-18T02:51:05.255Z,32.27
2018-05-18T02:53:33.680Z,28.73
2018-05-18T02:56:02.116Z,36.40
2018-05-18T02:58:30.487Z,34.23
2018-05-18T03:00:58.819Z,29.03
2018-05-18T03:03:27.152Z,31.90
2018-05-18T03:05:55.574Z,36.87
2018-05-18T03:08:23.939Z,33.73
2018-05-18T03:10:52.264Z,31.40
2018-05-18T03:13:20.614Z,35.27
2018-05-18T03:15:48.928Z,29.07
2018-05-18T03:18:17.368Z,29.13
2018-05-18T03:20:46.280Z,29.97
2018-05-18T03:23:14.634Z,34.70
2018-05-18T03:25:43.401Z,40.60
2018-05-18T03:28:11.738Z,35.13
2018-05-18T03:30:40.170Z,34.97
2018-05-18T03:33:08.493Z,27.13
2018-05-18T03:35:36.860Z,33.53
2018-05-18T03:38:05.183Z,37.37
2018-05-18T03:40:33.520Z,29.83
2018-05-18T03:43:01.871Z,42.30
2018-05-18T03:45:30.218Z,35.10
2018-05-18T03:47:58.602Z,36.90
2018-05-18T03:50:27.360Z,30.43
2018-05-18T03:52:55.816Z,36.60
2018-05-18T03:55:24.270Z,33.47
2018-05-18T03:57:52.848Z,38.73
2018-05-18T04:00:21.456Z,30.50
2018-05-18T04:03:02.290Z,39.63
2018-05-18T04:05:42.435Z,32.60
2018-05-18T04:08:22.660Z,68.37
2018-05-18T04:10:51.048Z,45.77
2018-05-18T04:13:19.383Z,35.33
2018-05-18T04:15:47.833Z,40.53
2018-05-18T04:18:16.175Z,35.27
2018-05-18T04:20:44.855Z,31.93
2018-05-18T04:23:13.482Z,39.03
2018-05-18T04:25:42.127Z,31.73
2018-05-18T04:28:10.503Z,35.70
2018-05-18T04:30:38.839Z,27.77
2018-05-18T04:33:07.181Z,36.87
2018-05-18T04:35:35.516Z,37.03
2018-05-18T04:38:03.917Z,33.33
2018-05-18T04:40:32.231Z,30.53
2018-05-18T04:43:00.572Z,28.40
2018-05-18T04:45:28.926Z,27.43
2018-05-18T04:47:57.346Z,30.47
2018-05-18T04:50:25.683Z,32.93
2018-05-18T04:52:54.030Z,28.27
2018-05-18T04:55:22.401Z,34.97
2018-05-18T04:57:50.816Z,39.20
2018-05-18T05:00:19.237Z,28.43
2018-05-18T05:02:47.714Z,37.50
2018-05-18T05:05:16.073Z,31.33
2018-05-18T05:07:44.462Z,36.10
2018-05-18T05:10:13.106Z,37.07
2018-05-18T05:12:41.490Z,35.80
2018-05-18T05:15:09.785Z,31.07
2018-05-18T05:17:38.173Z,34.47
2018-05-18T05:20:06.646Z,35.17
2018-05-18T05:22:35.087Z,29.03
2018-05-18T05:25:03.468Z,34.63
2018-05-18T05:27:31.827Z,32.30
2018-05-18T05:30:00.225Z,36.87
2018-05-18T05:32:28.561Z,31.63
2018-05-18T05:34:56.907Z,34.07
2018-05-18T05:37:25.252Z,36.93
2018-05-18T05:39:53.743Z,30.97
2018-05-18T05:42:22.108Z,29.77
2018-05-18T05:44:50.421Z,29.27
2018-05-18T05:47:19.280Z,26.20
2018-05-18T05:49:47.614Z,27.60
2018-05-18T05:52:15.959Z,32.00
2018-05-18T05:54:44.350Z,36.60
2018-05-18T05:57:12.745Z,26.80
2018-05-18T05:59:41.088Z,30.63
2018-05-18T06:02:09.959Z,31.03
2018-05-18T06:04:38.297Z,24.87
2018-05-18T06:07:06.713Z,36.67
2018-05-18T06:09:35.547Z,33.33
2018-05-18T06:12:03.864Z,34.90
2018-05-18T06:14:32.214Z,22.27
2018-05-18T06:17:00.578Z,27.80
2018-05-18T06:19:29.056Z,24.10
2018-05-18T06:21:57.386Z,33.70
2018-05-18T06:24:25.730Z,21.37
2018-05-18T06:26:54.155Z,31.77
2018-05-18T06:29:22.507Z,26.40
2018-05-18T06:31:50.835Z,23.43
2018-05-18T06:34:19.184Z,22.50
2018-05-18T06:36:47.524Z,23.70
2018-05-18T06:39:16.236Z,26.27
2018-05-18T06:41:44.609Z,31.10
2018-05-18T06:44:12.965Z,22.60
2018-05-18T06:46:41.349Z,27.13
2018-05-18T06:49:09.815Z,23.10
2018-05-18T06:51:38.159Z,28.13
2018-05-18T06:54:06.485Z,25.57
2018-05-18T06:56:34.872Z,23.00
2018-05-18T06:59:03.214Z,21.90
2018-05-18T07:01:31.559Z,21.13
2018-05-18T07:03:59.966Z,25.63
2018-05-18T07:06:28.267Z,33.27
2018-05-18T07:08:56.645Z,27.87
2018-05-18T07:11:28.549Z,22.87
2018-05-18T07:13:57.465Z,19.97
2018-05-18T07:16:25.942Z,24.80
2018-05-18T07:18:54.199Z,24.63
2018-05-18T07:21:22.554Z,21.67
2018-05-18T07:23:50.994Z,22.63
2018-05-18T07:26:19.427Z,26.97
2018-05-18T07:28:48.225Z,21.73
2018-05-18T07:31:16.574Z,23.60
2018-05-18T07:33:44.960Z,28.30
2018-05-18T07:36:13.403Z,23.87
2018-05-18T07:38:41.729Z,23.20
2018-05-18T07:41:10.072Z,29.83
2018-05-18T07:43:38.400Z,25.33
2018-05-18T07:46:06.743Z,26.83
2018-05-18T07:48:35.100Z,25.33
2018-05-18T07:51:03.519Z,33.33
2018-05-18T07:53:31.948Z,22.73
2018-05-18T07:56:00.303Z,26.27
2018-05-18T07:58:28.669Z,22.33
2018-05-18T08:00:56.997Z,19.03
2018-05-18T08:03:25.372Z,22.23
2018-05-18T08:05:53.723Z,25.40
2018-05-18T08:08:22.060Z,20.43
2018-05-18T08:10:50.465Z,18.87
2018-05-18T08:13:18.752Z,23.13
2018-05-18T08:15:47.105Z,19.10
2018-05-18T08:18:15.438Z,19.43
2018-05-18T08:20:43.798Z,22.10
2018-05-18T08:23:12.108Z,23.10
2018-05-18T08:25:40.463Z,19.53
2018-05-18T08:28:11.683Z,22.77
2018-05-18T08:30:51.717Z,18.93
2018-05-18T08:33:20.059Z,23.10
2018-05-18T08:35:48.500Z,19.67
2018-05-18T08:38:16.845Z,23.87
2018-05-18T08:40:45.194Z,22.13
2018-05-18T08:43:13.528Z,16.93
2018-05-18T08:45:41.973Z,20.47
2018-05-18T08:48:10.341Z,24.43
2018-05-18T08:50:41.023Z,21.90
2018-05-18T08:53:09.393Z,17.53
2018-05-18T08:55:40.109Z,19.87
2018-05-18T08:58:08.438Z,20.13
2018-05-18T09:00:36.852Z,18.13
2018-05-18T09:03:05.212Z,25.93
2018-05-18T09:05:33.568Z,22.50
2018-05-18T09:08:02.063Z,29.90
2018-05-18T09:10:30.447Z,19.40
2018-05-18T09:12:58.776Z,19.23
2018-05-18T09:15:27.100Z,30.00
2018-05-18T09:17:55.441Z,25.17
2018-05-18T09:20:23.872Z,23.93
2018-05-18T09:22:52.223Z,24.83
2018-05-18T09:25:20.556Z,32.47
2018-05-18T09:27:48.955Z,28.23
2018-05-18T09:30:17.279Z,26.70
2018-05-18T09:32:45.625Z,26.50
2018-05-18T09:35:13.963Z,31.87
2018-05-18T09:37:42.315Z,34.20
2018-05-18T09:40:10.675Z,34.60
2018-05-18T09:42:39.101Z,34.90
2018-05-18T09:45:07.556Z,34.53
2018-05-18T09:47:35.865Z,31.83
2018-05-18T09:50:04.275Z,24.50
2018-05-18T09:52:32.608Z,28.60
2018-05-18T09:55:01.101Z,22.77
2018-05-18T09:57:29.351Z,24.27
2018-05-18T09:59:57.696Z,28.07
2018-05-18T10:02:26.038Z,29.53
2018-05-18T10:04:54.433Z,31.97
2018-05-18T10:07:22.794Z,36.57
2018-05-18T10:09:51.136Z,34.83
2018-05-18T10:12:19.597Z,34.03
2018-05-18T10:14:47.891Z,33.10
2018-05-18T10:17:16.300Z,28.73
2018-05-18T10:19:44.661Z,29.57
2018-05-18T10:22:13.023Z,33.03
2018-05-18T10:24:41.363Z,31.47
2018-05-18T10:27:09.708Z,33.00
2018-05-18T10:29:38.043Z,28.97
2018-05-18T10:32:06.440Z,29.53
2018-05-18T10:34:34.841Z,29.60
2018-05-18T10:37:03.194Z,32.37
2018-05-18T10:39:31.635Z,29.77
2018-05-18T10:42:00.020Z,29.50
2018-05-18T10:44:28.359Z,35.60
2018-05-18T10:46:56.712Z,32.67
2018-05-18T10:49:25.112Z,37.47
2018-05-18T10:51:53.485Z,31.87
2018-05-18T10:54:24.731Z,31.40
2018-05-18T10:56:53.085Z,31.27
2018-05-18T10:59:21.534Z,34.43
2018-05-18T11:01:49.867Z,31.13
2018-05-18T11:04:18.195Z,30.70
2018-05-18T11:06:46.624Z,31.47
2018-05-18T11:09:15.054Z,32.17
2018-05-18T11:11:43.399Z,30.27
2018-05-18T11:14:12.058Z,29.37
2018-05-18T11:16:40.289Z,31.03
2018-05-18T11:19:08.666Z,28.10
2018-05-18T11:21:37.004Z,27.40
2018-05-18T11:24:05.335Z,30.10
2018-05-18T11:26:33.666Z,32.43
2018-05-18T11:29:02.037Z,29.47
2018-05-18T11:31:30.369Z,30.90
2018-05-18T11:33:58.716Z,30.50
2018-05-18T11:36:27.045Z,29.60
2018-05-18T11:38:55.403Z,31.37
2018-05-18T11:41:24.203Z,28.40
2018-05-18T11:43:52.590Z,27.80
2018-05-18T11:46:20.976Z,28.03
2018-05-18T11:48:49.386Z,27.73
2018-05-18T11:51:17.715Z,29.63
2018-05-18T11:53:46.074Z,26.00
2018-05-18T11:56:15.076Z,28.83
2018-05-18T11:58:43.443Z,26.27
2018-05-18T12:01:11.946Z,28.63
2018-05-18T12:03:40.279Z,26.67
2018-05-18T12:06:08.619Z,33.97
2018-05-18T12:08:37.609Z,29.47
2018-05-18T12:11:05.911Z,29.53
2018-05-18T12:13:34.258Z,31.03
2018-05-18T12:16:02.608Z,30.10
2018-05-18T12:18:30.951Z,29.80
2018-05-18T12:20:59.391Z,29.20
2018-05-18T12:23:27.788Z,29.60
2018-05-18T12:25:56.128Z,28.73
2018-05-18T12:28:24.465Z,28.57
2018-05-18T12:30:52.810Z,29.67
2018-05-18T12:33:21.152Z,28.47
2018-05-18T12:35:49.496Z,25.97
2018-05-18T12:38:18.010Z,29.20
2018-05-18T12:40:46.284Z,28.30
2018-05-18T12:43:14.729Z,28.10
2018-05-18T12:45:43.127Z,29.33
2018-05-18T12:48:11.448Z,37.57
2018-05-18T12:50:39.820Z,30.87
2018-05-18T12:53:08.150Z,28.40
2018-05-18T12:55:36.499Z,30.40
2018-05-18T12:58:04.847Z,27.63
2018-05-18T13:00:33.263Z,34.83
2018-05-18T13:03:01.681Z,34.23
2018-05-18T13:05:30.044Z,30.87
2018-05-18T13:07:58.395Z,31.77
2018-05-18T13:10:26.831Z,33.10
2018-05-18T13:12:55.323Z,37.10
2018-05-18T13:15:23.668Z,37.60
2018-05-18T13:17:52.097Z,36.73
2018-05-18T13:20:20.505Z,40.13
2018-05-18T13:22:48.895Z,40.33
2018-05-18T13:25:17.247Z,40.67
2018-05-18T13:27:45.787Z,38.53
2018-05-18T13:30:14.127Z,36.40
2018-05-18T13:32:42.467Z,37.30
2018-05-18T13:35:10.814Z,35.90
2018-05-18T13:37:39.239Z,42.20
2018-05-18T13:40:07.648Z,40.10
2018-05-18T13:42:36.997Z,45.47
2018-05-18T13:45:05.356Z,44.40
2018-05-18T13:47:33.683Z,44.77
2018-05-18T13:50:02.044Z,45.00
2018-05-18T13:52:30.419Z,48.13
2018-05-18T13:54:58.853Z,45.77
2018-05-18T13:57:27.226Z,47.67
2018-05-18T13:59:55.564Z,45.53
2018-05-18T14:02:23.921Z,49.27
2018-05-18T14:04:52.287Z,49.47
2018-05-18T14:07:20.602Z,47.13
2018-05-18T14:09:48.947Z,45.07
2018-05-18T14:12:17.284Z,45.93
2018-05-18T14:14:45.625Z,43.27
2018-05-18T14:17:14.011Z,44.00
2018-05-18T14:19:42.336Z,46.60
2018-05-18T14:22:10.675Z,48.20
2018-05-18T14:24:39.117Z,43.10
2018-05-18T14:27:07.459Z,47.17
2018-05-18T14:29:35.865Z,47.70
2018-05-18T14:32:04.207Z,46.60
2018-05-18T14:34:32.532Z,44.37
2018-05-18T14:37:00.884Z,41.50
2018-05-18T14:39:29.327Z,43.13
2018-05-18T14:41:57.704Z,40.93
2018-05-18T14:44:26.111Z,36.67
2018-05-18T14:46:54.461Z,34.33
2018-05-18T14:49:22.794Z,31.87
2018-05-18T14:51:51.239Z,33.37
2018-05-18T14:54:19.597Z,35.30
2018-05-18T14:56:48.018Z,35.17
2018-05-18T14:59:16.340Z,36.77
2018-05-18T15:01:44.714Z,38.43
2018-05-18T15:04:13.059Z,37.13
2018-05-18T15:06:41.452Z,36.70
2018-05-18T15:09:09.883Z,37.50
2018-05-18T15:11:38.284Z,37.27
2018-05-18T15:14:06.637Z,36.47
2018-05-18T15:16:34.981Z,28.83
2018-05-18T15:19:03.343Z,27.90
2018-05-18T15:21:31.696Z,26.43
2018-05-18T15:24:00.056Z,26.50
2018-05-18T15:26:28.435Z,25.50
2018-05-18T15:28:56.765Z,26.17
2018-05-18T15:31:25.093Z,22.87
2018-05-18T15:33:53.571Z,25.97
2018-05-18T15:36:22.004Z,23.67
2018-05-18T15:38:50.413Z,21.37
2018-05-18T15:41:18.784Z,19.83
2018-05-18T15:43:47.175Z,20.57
2018-05-18T15:46:15.870Z,20.67
2018-05-18T15:48:44.243Z,21.33
2018-05-18T15:51:12.659Z,19.83
2018-05-18T15:53:41.032Z,21.53
2018-05-18T15:56:09.446Z,22.70
2018-05-18T15:58:37.812Z,21.97
2018-05-18T16:01:06.140Z,24.37
2018-05-18T16:03:34.477Z,24.50
2018-05-18T16:06:02.826Z,24.53
2018-05-18T16:08:31.160Z,25.60
2018-05-18T16:10:59.491Z,25.03
2018-05-18T16:13:27.834Z,25.07
2018-05-18T16:15:56.175Z,21.17
2018-05-18T16:18:24.522Z,20.20
2018-05-18T16:20:52.875Z,23.27
2018-05-18T16:23:21.204Z,21.57
2018-05-18T16:25:49.562Z,20.27
2018-05-18T16:28:18.017Z,20.27
2018-05-18T16:30:46.313Z,24.73
2018-05-18T16:33:14.717Z,19.50
2018-05-18T16:35:43.050Z,20.67
2018-05-18T16:38:11.384Z,17.93
2018-05-18T16:40:39.760Z,21.10
2018-05-18T16:43:08.118Z,21.20
2018-05-18T16:45:36.484Z,17.20
2018-05-18T16:48:04.832Z,18.07
2018-05-18T16:50:33.268Z,16.87
2018-05-18T16:53:01.655Z,17.73
2018-05-18T16:55:30.048Z,18.40
2018-05-18T16:57:58.472Z,19.77
2018-05-18T17:00:26.927Z,18.93
2018-05-18T17:02:55.274Z,15.10
2018-05-18T17:05:23.716Z,20.33
2018-05-18T17:07:52.107Z,18.10
2018-05-18T17:10:20.460Z,17.93
2018-05-18T17:12:48.936Z,16.87
2018-05-18T17:15:17.275Z,18.07
2018-05-18T17:17:45.762Z,17.00
2018-05-18T17:20:14.210Z,18.77
2018-05-18T17:22:42.589Z,21.80
2018-05-18T17:25:10.946Z,38.20
2018-05-18T17:27:39.289Z,26.17
2018-05-18T17:30:07.643Z,24.47
2018-05-18T17:32:36.047Z,49.40
2018-05-18T17:35:05.620Z,32.10
2018-05-18T17:37:33.958Z,21.50
2018-05-18T17:40:02.351Z,30.40
2018-05-18T17:42:30.761Z,37.93
2018-05-18T17:44:59.129Z,40.73
2018-05-18T17:47:27.524Z,30.30
2018-05-18T17:49:55.908Z,31.63
2018-05-18T17:52:24.300Z,25.23
2018-05-18T17:54:52.640Z,30.03
2018-05-18T17:57:21.129Z,30.73
2018-05-18T17:59:49.686Z,43.07
2018-05-18T18:02:18.032Z,22.50
2018-05-18T18:04:46.364Z,20.07
2018-05-18T18:07:14.755Z,22.50
2018-05-18T18:09:43.888Z,18.47
2018-05-18T18:12:12.243Z,21.53
2018-05-18T18:14:40.685Z,25.17
2018-05-18T18:17:09.031Z,23.53
2018-05-18T18:19:38.184Z,24.33
2018-05-18T18:22:06.553Z,19.37
2018-05-18T18:24:34.883Z,21.03
2018-05-18T18:27:03.302Z,21.87
2018-05-18T18:29:31.775Z,23.63
2018-05-18T18:32:00.094Z,17.03
2018-05-18T18:34:28.448Z,17.97
2018-05-18T18:36:56.788Z,16.50
2018-05-18T18:39:26.348Z,21.63
2018-05-18T18:41:54.696Z,18.60
2018-05-18T18:44:23.033Z,18.97
2018-05-18T18:46:51.396Z,26.83
2018-05-18T18:49:19.828Z,21.67
2018-05-18T18:51:48.157Z,18.77
2018-05-18T18:54:16.495Z,18.63
2018-05-18T18:56:44.860Z,19.27
2018-05-18T18:59:13.205Z,18.83
2018-05-18T19:01:41.539Z,20.67
2018-05-18T19:04:10.221Z,20.70
2018-05-18T19:06:38.581Z,15.87
2018-05-18T19:09:06.925Z,24.47
2018-05-18T19:11:35.260Z,18.20
2018-05-18T19:14:03.604Z,18.47
2018-05-18T19:16:31.950Z,16.57
2018-05-18T19:19:00.311Z,16.47
2018-05-18T19:21:28.710Z,16.20
2018-05-18T19:23:57.083Z,15.83
2018-05-18T19:26:25.467Z,18.07
2018-05-18T19:28:53.804Z,20.53
2018-05-18T19:31:22.150Z,21.90
2018-05-18T19:33:50.536Z,21.07
2018-05-18T19:36:18.938Z,20.47
2018-05-18T19:38:47.280Z,23.07
2018-05-18T19:41:16.387Z,24.60
2018-05-18T19:43:44.833Z,23.43
2018-05-18T19:46:13.147Z,25.80
2018-05-18T19:48:41.494Z,19.90
2018-05-18T19:51:09.910Z,19.83
2018-05-18T19:53:38.271Z,25.77
2018-05-18T19:56:07.248Z,19.77
2018-05-18T19:58:36.256Z,20.47
2018-05-18T20:01:04.712Z,24.77
2018-05-18T20:03:33.193Z,18.17
2018-05-18T20:06:01.604Z,21.60
2018-05-18T20:08:29.985Z,18.40
2018-05-18T20:10:58.476Z,22.60
2018-05-18T20:13:27.554Z,20.10
2018-05-18T20:15:56.002Z,21.40
2018-05-18T20:18:24.353Z,23.83
2018-05-18T20:20:52.709Z,26.20
2018-05-18T20:23:21.071Z,22.93
2018-05-18T20:25:49.463Z,26.33
2018-05-18T20:28:17.792Z,22.37
2018-05-18T20:30:46.140Z,27.03
2018-05-18T20:33:14.585Z,25.03
2018-05-18T20:35:43.139Z,22.50
2018-05-18T20:38:11.647Z,26.37
2018-05-18T20:40:39.931Z,21.03
2018-05-18T20:43:08.290Z,24.23
2018-05-18T20:45:36.621Z,20.37
2018-05-18T20:48:04.974Z,24.67
2018-05-18T20:50:33.372Z,21.27
2018-05-18T20:53:01.774Z,22.80
2018-05-18T20:55:30.119Z,19.07
2018-05-18T20:57:58.562Z,22.30
2018-05-18T21:00:26.955Z,22.23
2018-05-18T21:02:55.329Z,19.63
2018-05-18T21:05:23.719Z,19.20
2018-05-18T21:07:52.068Z,19.83
2018-05-18T21:10:20.413Z,23.07
2018-05-18T21:12:48.751Z,23.80
2018-05-18T21:15:17.194Z,21.00
2018-05-18T21:17:45.783Z,20.07
2018-05-18T21:20:14.221Z,18.70
2018-05-18T21:22:42.551Z,18.67
2018-05-18T21:25:10.909Z,18.40
2018-05-18T21:27:39.263Z,22.33
2018-05-18T21:30:07.644Z,19.53
2018-05-18T21:32:36.048Z,18.97
2018-05-18T21:35:04.566Z,20.23
2018-05-18T21:37:32.903Z,19.27
2018-05-18T21:40:01.324Z,21.17
2018-05-18T21:42:29.712Z,22.43
2018-05-18T21:44:58.110Z,26.03
2018-05-18T21:47:26.515Z,20.90
2018-05-18T21:49:54.856Z,25.30
2018-05-18T21:52:23.399Z,20.17
2018-05-18T21:54:52.759Z,19.37
2018-05-18T21:57:21.091Z,24.37
2018-05-18T21:59:49.441Z,20.47
2018-05-18T22:02:17.777Z,20.90
2018-05-18T22:04:46.269Z,26.27
2018-05-18T22:07:14.603Z,24.87
2018-05-18T22:09:42.956Z,20.67
2018-05-18T22:12:11.296Z,21.00
2018-05-18T22:14:39.637Z,20.20
2018-05-18T22:17:08.033Z,23.73
2018-05-18T22:19:36.431Z,18.53
2018-05-18T22:22:04.800Z,23.33
2018-05-18T22:24:33.133Z,25.57
2018-05-18T22:27:01.500Z,24.20
2018-05-18T22:29:29.834Z,18.60
2018-05-18T22:31:58.988Z,21.30
2018-05-18T22:34:27.390Z,20.13
2018-05-18T22:36:55.741Z,23.40
2018-05-18T22:39:24.105Z,26.43
2018-05-18T22:41:52.521Z,19.90
2018-05-18T22:44:20.879Z,27.87
2018-05-18T22:46:49.256Z,22.77
2018-05-18T22:49:17.583Z,22.50
2018-05-18T22:51:45.935Z,21.43
2018-05-18T22:54:14.315Z,23.63
2018-05-18T22:56:42.677Z,20.73
2018-05-18T22:59:11.251Z,20.43
2018-05-18T23:01:39.606Z,24.27
2018-05-18T23:04:07.941Z,26.30
2018-05-18T23:06:36.300Z,18.00
2018-05-18T23:09:05.337Z,24.73
2018-05-18T23:11:33.695Z,26.37
2018-05-18T23:14:02.053Z,21.47
2018-05-18T23:16:30.477Z,22.70
2018-05-18T23:18:58.908Z,23.80
2018-05-18T23:21:27.260Z,18.43
2018-05-18T23:23:55.603Z,22.00
2018-05-18T23:26:24.023Z,30.13
2018-05-18T23:28:52.360Z,22.30
2018-05-18T23:31:20.697Z,21.17
2018-05-18T23:33:49.123Z,27.23
2018-05-18T23:36:17.502Z,24.57
2018-05-18T23:38:45.900Z,23.30
2018-05-18T23:41:14.236Z,24.23
2018-05-18T23:43:42.588Z,21.20
2018-05-18T23:46:10.915Z,21.10
2018-05-18T23:48:39.412Z,22.80
2018-05-18T23:51:07.765Z,26.13
2018-05-18T23:53:36.647Z,23.60
2018-05-18T23:56:04.977Z,19.73
2018-05-18T23:58:33.355Z,21.53
